createdAt,value
2023-04-15T00:01:41.423Z,3.40
2023-04-15T00:04:43.126Z,3.22
2023-04-15T00:07:46.990Z,3.30
2023-04-15T00:10:49.324Z,3.42
2023-04-15T00:13:51.247Z,3.08
2023-04-15T00:16:56.273Z,3.07
2023-04-15T00:19:59.895Z,2.75
2023-04-15T00:23:04.146Z,2.97
2023-04-15T00:26:06.102Z,2.95
2023-04-15T00:29:08.307Z,3.10
2023-04-15T00:32:09.934Z,3.07
2023-04-15T00:35:12.273Z,2.85
2023-04-15T00:38:13.873Z,3.42
2023-04-15T00:41:15.655Z,2.85
2023-04-15T00:44:19.026Z,3.00
2023-04-15T00:47:21.777Z,3.17
2023-04-15T00:50:23.455Z,3.17
2023-04-15T00:53:25.056Z,3.42
2023-04-15T00:56:28.833Z,3.05
2023-04-15T00:59:31.624Z,3.33
2023-04-15T01:02:33.598Z,3.53
2023-04-15T01:05:36.353Z,2.65
2023-04-15T01:08:38.044Z,3.08
2023-04-15T01:11:39.949Z,2.80
2023-04-15T01:14:41.528Z,2.50
2023-04-15T01:17:43.518Z,2.60
2023-04-15T01:20:45.183Z,2.60
2023-04-15T01:23:48.478Z,3.38
2023-04-15T01:26:50.482Z,2.45
2023-04-15T01:29:52.840Z,2.60
2023-04-15T01:32:54.756Z,2.63
2023-04-15T01:35:56.678Z,2.00
2023-04-15T01:38:58.801Z,2.33
2023-04-15T01:42:00.623Z,2.35
2023-04-15T01:45:02.746Z,2.60
2023-04-15T01:48:04.505Z,2.63
2023-04-15T01:51:06.219Z,2.75
2023-04-15T01:54:07.962Z,2.47
2023-04-15T01:57:09.949Z,2.70
2023-04-15T02:00:11.908Z,2.60
2023-04-15T02:03:13.815Z,2.57
2023-04-15T02:06:15.700Z,2.78
2023-04-15T02:09:17.385Z,2.63
2023-04-15T02:12:19.037Z,2.70
2023-04-15T02:15:20.859Z,2.72
2023-04-15T02:18:22.559Z,2.50
2023-04-15T02:21:24.161Z,2.30
2023-04-15T02:24:26.745Z,2.50
2023-04-15T02:27:28.997Z,2.90
2023-04-15T02:30:30.596Z,2.53
2023-04-15T02:33:32.548Z,2.50
2023-04-15T02:36:34.726Z,2.40
2023-04-15T02:39:36.777Z,2.50
2023-04-15T02:42:39.634Z,2.63
2023-04-15T02:45:41.304Z,2.55
2023-04-15T02:48:43.023Z,2.33
2023-04-15T02:51:49.494Z,2.20
2023-04-15T02:54:51.261Z,2.50
2023-04-15T02:57:52.954Z,2.30
2023-04-15T03:00:54.623Z,2.60
2023-04-15T03:03:56.431Z,1.90
2023-04-15T03:07:00.718Z,2.33
2023-04-15T03:10:02.425Z,2.38
2023-04-15T03:13:04.094Z,2.25
2023-04-15T03:16:06.206Z,2.75
2023-04-15T03:19:07.915Z,2.63
2023-04-15T03:22:09.494Z,3.30
2023-04-15T03:25:11.509Z,2.80
2023-04-15T03:28:13.174Z,3.28
2023-04-15T03:31:16.081Z,2.60
2023-04-15T03:34:17.748Z,2.57
2023-04-15T03:37:19.524Z,3.10
2023-04-15T03:40:21.750Z,2.90
2023-04-15T03:43:23.642Z,2.67
2023-04-15T03:46:25.773Z,3.00
2023-04-15T03:49:27.569Z,2.40
2023-04-15T03:52:29.162Z,2.88
2023-04-15T03:55:30.997Z,2.95
2023-04-15T03:58:32.809Z,2.88
2023-04-15T04:01:34.495Z,3.05
2023-04-15T04:04:36.421Z,3.30
2023-04-15T04:07:38.280Z,3.33
2023-04-15T04:10:40.359Z,2.90
2023-04-15T04:13:42.062Z,2.53
2023-04-15T04:16:43.752Z,2.60
2023-04-15T04:19:45.418Z,2.73
2023-04-15T04:22:47.082Z,2.65
2023-04-15T04:25:48.840Z,2.92
2023-04-15T04:28:50.776Z,2.83
2023-04-15T04:31:52.556Z,2.47
2023-04-15T04:34:54.213Z,2.83
2023-04-15T04:37:56.585Z,2.60
2023-04-15T04:40:58.310Z,2.78
2023-04-15T04:44:00.143Z,3.10
2023-04-15T04:47:01.851Z,2.75
2023-04-15T04:50:03.688Z,2.97
2023-04-15T04:53:05.361Z,2.78
2023-04-15T04:56:07.101Z,2.95
2023-04-15T04:59:09.418Z,2.90
2023-04-15T05:02:11.092Z,2.83
2023-04-15T05:05:13.477Z,2.77
2023-04-15T05:08:16.166Z,2.90
2023-04-15T05:11:17.815Z,3.17
2023-04-15T05:14:19.758Z,2.83
2023-04-15T05:17:22.240Z,2.65
2023-04-15T05:20:23.924Z,2.97
2023-04-15T05:23:25.821Z,2.53
2023-04-15T05:26:27.628Z,2.80
2023-04-15T05:29:29.291Z,2.58
2023-04-15T05:32:31.276Z,2.83
2023-04-15T05:35:32.993Z,2.60
2023-04-15T05:38:34.646Z,2.55
2023-04-15T05:41:36.555Z,2.70
2023-04-15T05:44:38.284Z,2.88
2023-04-15T05:47:40.677Z,2.40
2023-04-15T05:50:42.463Z,3.10
2023-04-15T05:53:44.152Z,2.45
2023-04-15T05:56:46.020Z,2.70
2023-04-15T05:59:47.644Z,2.17
2023-04-15T06:02:49.903Z,2.47
2023-04-15T06:05:51.630Z,2.40
2023-04-15T06:08:53.637Z,2.58
2023-04-15T06:11:56.189Z,2.80
2023-04-15T06:14:59.584Z,2.53
2023-04-15T06:18:02.007Z,2.50
2023-04-15T06:21:03.851Z,2.70
2023-04-15T06:24:06.150Z,2.30
2023-04-15T06:27:08.096Z,2.40
2023-04-15T06:30:10.153Z,2.30
2023-04-15T06:33:11.774Z,2.50
2023-04-15T06:36:13.589Z,2.47
2023-04-15T06:39:15.450Z,2.30
2023-04-15T06:42:17.109Z,2.60
2023-04-15T06:45:18.880Z,2.33
2023-04-15T06:48:20.510Z,2.47
2023-04-15T06:51:22.528Z,2.30
2023-04-15T06:54:24.349Z,2.80
2023-04-15T06:57:26.406Z,2.72
2023-04-15T07:00:28.775Z,2.97
2023-04-15T07:03:32.651Z,2.60
2023-04-15T07:06:35.647Z,2.23
2023-04-15T07:09:37.385Z,2.70
2023-04-15T07:12:39.148Z,2.38
2023-04-15T07:15:40.855Z,2.50
2023-04-15T07:18:42.460Z,2.38
2023-04-15T07:21:44.228Z,2.33
2023-04-15T07:24:46.713Z,2.15
2023-04-15T07:27:48.521Z,2.22
2023-04-15T07:30:50.457Z,1.90
2023-04-15T07:33:52.087Z,1.90
2023-04-15T07:36:53.722Z,2.10
2023-04-15T07:39:55.911Z,2.10
2023-04-15T07:42:58.552Z,1.92
2023-04-15T07:46:00.293Z,1.80
2023-04-15T07:49:02.200Z,1.60
2023-04-15T07:52:04.326Z,1.50
2023-04-15T07:55:09.746Z,1.55
2023-04-15T07:58:11.634Z,1.80
2023-04-15T08:01:13.529Z,1.77
2023-04-15T08:04:15.855Z,1.80
2023-04-15T08:07:18.167Z,1.70
2023-04-15T08:10:19.763Z,1.80
2023-04-15T08:13:21.793Z,1.60
2023-04-15T08:16:25.408Z,1.50
2023-04-15T08:19:27.259Z,1.27
2023-04-15T08:22:28.891Z,1.20
2023-04-15T08:25:30.524Z,1.63
2023-04-15T08:28:32.387Z,1.67
2023-04-15T08:31:34.058Z,1.30
2023-04-15T08:34:35.956Z,1.50
2023-04-15T08:37:37.584Z,1.53
2023-04-15T08:40:45.652Z,2.25
2023-04-15T08:43:53.741Z,2.38
2023-04-15T08:46:57.222Z,2.70
2023-04-15T08:49:59.829Z,2.67
2023-04-15T08:53:01.661Z,2.90
2023-04-15T08:56:07.593Z,2.65
2023-04-15T08:59:09.973Z,2.33
2023-04-15T09:02:12.336Z,2.10
2023-04-15T09:05:14.116Z,2.17
2023-04-15T09:08:15.752Z,2.10
2023-04-15T09:11:20.009Z,2.05
2023-04-15T09:14:21.918Z,2.10
2023-04-15T09:17:25.514Z,2.00
2023-04-15T09:20:27.478Z,2.30
2023-04-15T09:23:29.362Z,2.10
2023-04-15T09:26:36.181Z,2.50
2023-04-15T09:29:37.835Z,2.15
2023-04-15T09:32:52.017Z,1.98
2023-04-15T09:35:59.320Z,1.80
2023-04-15T09:39:01.106Z,2.00
2023-04-15T09:42:08.937Z,2.17
2023-04-15T09:45:13.446Z,1.80
2023-04-15T09:48:27.158Z,2.13
2023-04-15T09:51:35.914Z,2.03
2023-04-15T09:54:38.807Z,2.23
2023-04-15T09:57:41.807Z,2.00
2023-04-15T10:00:44.091Z,1.90
2023-04-15T10:03:46.867Z,1.50
2023-04-15T10:06:48.664Z,1.17
2023-04-15T10:09:50.432Z,1.03
2023-04-15T10:12:53.436Z,0.93
2023-04-15T10:15:57.985Z,0.90
2023-04-15T10:19:02.254Z,0.90
2023-04-15T10:22:04.520Z,1.13
2023-04-15T10:25:07.164Z,1.13
2023-04-15T10:28:09.618Z,1.10
2023-04-15T10:31:15.643Z,1.20
2023-04-15T10:34:18.676Z,1.00
2023-04-15T10:37:33.787Z,0.93
2023-04-15T10:40:35.493Z,0.97
2023-04-15T10:43:37.472Z,0.70
2023-04-15T10:46:41.566Z,0.77
2023-04-15T10:49:46.095Z,0.90
2023-04-15T10:52:51.703Z,0.90
2023-04-15T10:55:53.432Z,0.80
2023-04-15T10:58:55.024Z,0.90
2023-04-15T11:02:07.721Z,1.02
2023-04-15T11:05:17.043Z,0.80
2023-04-15T11:08:19.207Z,0.90
2023-04-15T11:11:20.900Z,0.77
2023-04-15T11:14:22.932Z,1.30
2023-04-15T11:17:31.072Z,1.50
2023-04-15T11:20:32.984Z,1.10
2023-04-15T11:23:40.203Z,0.90
2023-04-15T11:26:41.873Z,0.90
2023-04-15T11:29:44.261Z,0.90
2023-04-15T11:32:45.916Z,0.80
2023-04-15T11:35:48.129Z,1.05
2023-04-15T11:38:49.750Z,0.80
2023-04-15T11:41:51.374Z,0.70
2023-04-15T11:45:07.557Z,0.70
2023-04-15T11:48:11.116Z,0.82
2023-04-15T11:51:13.976Z,0.70
2023-04-15T11:54:19.261Z,0.80
2023-04-15T11:57:20.905Z,0.90
2023-04-15T12:00:22.655Z,0.60
2023-04-15T12:03:36.433Z,0.73
2023-04-15T12:06:39.421Z,0.68
2023-04-15T12:09:41.323Z,1.00
2023-04-15T12:12:42.991Z,0.90
2023-04-15T12:15:44.845Z,1.00
2023-04-15T12:18:56.133Z,0.90
2023-04-15T12:22:18.143Z,0.95
2023-04-15T12:25:19.877Z,0.90
2023-04-15T12:28:21.517Z,0.83
2023-04-15T12:31:23.827Z,0.80
2023-04-15T12:34:31.836Z,0.88
2023-04-15T12:37:33.438Z,0.85
2023-04-15T12:40:35.143Z,0.90
2023-04-15T12:43:37.029Z,1.00
2023-04-15T12:46:39.018Z,0.95
2023-04-15T12:49:41.221Z,1.15
2023-04-15T12:52:43.113Z,0.90
2023-04-15T12:55:44.991Z,0.90
2023-04-15T12:58:46.656Z,0.80
2023-04-15T13:01:49.032Z,0.85
2023-04-15T13:04:51.126Z,0.90
2023-04-15T13:07:52.946Z,1.10
2023-04-15T13:10:54.548Z,0.90
2023-04-15T13:13:56.992Z,0.90
2023-04-15T13:16:59.441Z,1.00
2023-04-15T13:20:01.459Z,1.20
2023-04-15T13:23:03.185Z,1.30
2023-04-15T13:26:04.877Z,1.40
2023-04-15T13:29:06.794Z,1.53
2023-04-15T13:32:08.454Z,1.55
2023-04-15T13:35:10.405Z,1.20
2023-04-15T13:38:12.051Z,1.17
2023-04-15T13:41:13.641Z,1.23
2023-04-15T13:44:15.377Z,1.43
2023-04-15T13:47:17.720Z,1.30
2023-04-15T13:50:19.465Z,1.30
2023-04-15T13:53:21.371Z,1.33
2023-04-15T13:56:36.101Z,1.10
2023-04-15T13:59:37.752Z,1.00
2023-04-15T14:02:40.696Z,1.00
2023-04-15T14:05:42.471Z,0.90
2023-04-15T14:08:44.090Z,1.00
2023-04-15T14:11:45.765Z,1.10
2023-04-15T14:14:47.331Z,1.20
2023-04-15T14:17:49.092Z,1.10
2023-04-15T14:20:50.869Z,1.23
2023-04-15T14:23:52.536Z,1.00
2023-04-15T14:26:54.386Z,1.08
2023-04-15T14:29:57.724Z,0.90
2023-04-15T14:32:59.434Z,0.80
2023-04-15T14:36:01.187Z,1.08
2023-04-15T14:39:04.242Z,0.90
2023-04-15T14:42:06.151Z,0.90
2023-04-15T14:45:08.487Z,0.70
2023-04-15T14:48:10.389Z,0.90
2023-04-15T14:51:12.092Z,0.82
2023-04-15T14:54:13.756Z,0.77
2023-04-15T14:57:15.381Z,0.90
2023-04-15T15:00:17.201Z,1.00
2023-04-15T15:03:19.016Z,0.90
2023-04-15T15:06:22.697Z,1.08
2023-04-15T15:09:25.108Z,1.10
2023-04-15T15:12:26.794Z,1.25
2023-04-15T15:15:29.246Z,1.10
2023-04-15T15:18:31.239Z,0.90
2023-04-15T15:21:33.182Z,1.10
2023-04-15T15:24:34.807Z,1.15
2023-04-15T15:27:38.212Z,1.23
2023-04-15T15:30:40.108Z,0.70
2023-04-15T15:33:41.765Z,0.80
2023-04-15T15:36:43.438Z,0.65
2023-04-15T15:39:45.082Z,0.70
2023-04-15T15:42:49.874Z,0.65
2023-04-15T15:45:52.955Z,0.70
2023-04-15T15:48:54.966Z,0.80
2023-04-15T15:51:57.009Z,0.55
2023-04-15T15:54:58.802Z,0.75
2023-04-15T15:58:00.490Z,0.80
2023-04-15T16:01:02.255Z,0.80
2023-04-15T16:04:04.086Z,0.90
2023-04-15T16:07:05.957Z,1.30
2023-04-15T16:10:08.083Z,0.80
2023-04-15T16:13:10.813Z,1.20
2023-04-15T16:16:12.678Z,1.23
2023-04-15T16:19:15.130Z,0.90
2023-04-15T16:22:17.092Z,0.98
2023-04-15T16:25:18.820Z,1.30
2023-04-15T16:28:26.333Z,2.38
2023-04-15T16:31:28.358Z,2.17
2023-04-15T16:34:30.222Z,2.35
2023-04-15T16:37:33.254Z,2.20
2023-04-15T16:40:35.042Z,2.28
2023-04-15T16:43:36.661Z,2.65
2023-04-15T16:46:40.801Z,2.47
2023-04-15T16:49:42.814Z,2.30
2023-04-15T16:52:44.537Z,2.33
2023-04-15T16:55:46.361Z,1.75
2023-04-15T16:58:48.226Z,1.98
2023-04-15T17:01:49.974Z,1.70
2023-04-15T17:04:51.745Z,1.75
2023-04-15T17:07:53.354Z,2.60
2023-04-15T17:10:55.301Z,2.92
2023-04-15T17:13:56.912Z,2.70
2023-04-15T17:16:58.715Z,2.50
2023-04-15T17:20:01.474Z,3.10
2023-04-15T17:23:04.120Z,2.75
2023-04-15T17:26:05.995Z,2.63
2023-04-15T17:29:08.112Z,2.33
2023-04-15T17:32:10.925Z,2.17
2023-04-15T17:35:12.580Z,2.40
2023-04-15T17:38:14.235Z,2.70
2023-04-15T17:41:16.352Z,2.42
2023-04-15T17:44:19.227Z,2.53
2023-04-15T17:47:20.919Z,2.30
2023-04-15T17:50:22.503Z,2.58
2023-04-15T17:53:24.120Z,3.08
2023-04-15T17:56:27.921Z,3.20
2023-04-15T17:59:30.683Z,3.25
2023-04-15T18:02:33.896Z,3.00
2023-04-15T18:05:41.369Z,4.78
2023-04-15T18:08:44.216Z,3.95
2023-04-15T18:11:47.436Z,4.72
2023-04-15T18:14:49.062Z,4.63
2023-04-15T18:17:50.731Z,4.60
2023-04-15T18:20:52.537Z,5.05
2023-04-15T18:23:54.207Z,5.43
2023-04-15T18:26:56.506Z,5.63
2023-04-15T18:29:58.321Z,5.43
2023-04-15T18:33:00.074Z,5.43
2023-04-15T18:36:02.664Z,4.90
2023-04-15T18:39:05.562Z,5.00
2023-04-15T18:42:07.450Z,4.30
2023-04-15T18:45:09.309Z,3.63
2023-04-15T18:48:11.209Z,3.10
2023-04-15T18:51:14.181Z,2.63
2023-04-15T18:54:15.984Z,3.13
2023-04-15T18:57:23.643Z,3.22
2023-04-15T19:00:36.495Z,4.07
2023-04-15T19:03:38.156Z,3.80
2023-04-15T19:06:39.874Z,4.30
2023-04-15T19:09:42.369Z,4.97
2023-04-15T19:12:43.982Z,5.18
2023-04-15T19:15:45.594Z,5.15
2023-04-15T19:18:47.247Z,4.53
2023-04-15T19:21:50.322Z,4.97
2023-04-15T19:24:52.149Z,5.00
2023-04-15T19:27:53.824Z,4.50
2023-04-15T19:30:55.610Z,4.45
2023-04-15T19:33:57.188Z,4.40
2023-04-15T19:36:58.884Z,4.07
2023-04-15T19:40:00.486Z,4.85
2023-04-15T19:43:02.085Z,9.02
2023-04-15T19:46:03.788Z,14.38
2023-04-15T19:49:05.747Z,10.50
2023-04-15T19:52:07.542Z,8.95
2023-04-15T19:55:09.311Z,13.10
2023-04-15T19:58:11.371Z,14.45
2023-04-15T20:01:13.127Z,13.93
2023-04-15T20:04:14.943Z,13.03
2023-04-15T20:07:16.635Z,10.02
2023-04-15T20:10:22.435Z,10.18
2023-04-15T20:13:24.096Z,8.63
2023-04-15T20:16:27.362Z,8.05
2023-04-15T20:19:29.032Z,7.27
2023-04-15T20:22:31.917Z,7.45
2023-04-15T20:25:33.572Z,6.25
2023-04-15T20:28:35.218Z,6.50
2023-04-15T20:31:37.455Z,7.35
2023-04-15T20:34:40.536Z,10.47
2023-04-15T20:37:44.040Z,7.40
2023-04-15T20:40:46.014Z,6.97
2023-04-15T20:43:47.785Z,6.85
2023-04-15T20:46:50.436Z,9.13
2023-04-15T20:49:52.251Z,4.50
2023-04-15T20:52:53.950Z,4.63
2023-04-15T20:55:55.660Z,5.68
2023-04-15T20:58:57.843Z,5.85
2023-04-15T21:01:59.562Z,5.43
2023-04-15T21:05:01.220Z,5.53
2023-04-15T21:08:02.852Z,5.90
2023-04-15T21:11:04.441Z,5.43
2023-04-15T21:14:08.056Z,5.75
2023-04-15T21:17:11.329Z,5.70
2023-04-15T21:20:13.378Z,5.23
2023-04-15T21:23:14.965Z,5.10
2023-04-15T21:26:16.579Z,4.40
2023-04-15T21:29:18.384Z,3.80
2023-04-15T21:32:20.101Z,3.28
2023-04-15T21:35:21.834Z,2.67
2023-04-15T21:38:23.666Z,2.70
2023-04-15T21:41:25.894Z,2.60
2023-04-15T21:44:27.664Z,2.80
2023-04-15T21:47:29.321Z,2.63
2023-04-15T21:50:31.328Z,2.60
2023-04-15T21:53:33.035Z,2.92
2023-04-15T21:56:34.843Z,2.50
2023-04-15T21:59:36.467Z,2.55
2023-04-15T22:02:38.518Z,2.58
2023-04-15T22:05:43.077Z,2.60
2023-04-15T22:09:11.358Z,2.63
2023-04-15T22:12:07.633Z,3.08
2023-04-15T22:15:09.541Z,3.10
2023-04-15T22:18:12.675Z,3.17
2023-04-15T22:21:14.534Z,3.43
2023-04-15T22:24:33.946Z,4.13
2023-04-15T22:27:37.736Z,5.28
2023-04-15T22:30:41.113Z,5.35
2023-04-15T22:33:42.698Z,5.93
2023-04-15T22:36:44.291Z,5.83
2023-04-15T22:39:46.074Z,6.30
2023-04-15T22:42:47.653Z,5.28
2023-04-15T22:45:53.135Z,4.68
2023-04-15T22:48:54.994Z,5.03
2023-04-15T22:51:56.785Z,5.50
2023-04-15T22:54:59.148Z,5.20
2023-04-15T22:58:00.835Z,4.22
2023-04-15T23:01:02.475Z,4.65
2023-04-15T23:04:05.277Z,5.38
2023-04-15T23:07:12.630Z,3.73
2023-04-15T23:10:14.268Z,3.65
2023-04-15T23:13:15.924Z,3.78
2023-04-15T23:16:17.631Z,4.60
2023-04-15T23:19:19.261Z,4.40
2023-04-15T23:22:21.040Z,3.80
2023-04-15T23:25:22.830Z,4.43
2023-04-15T23:28:24.475Z,5.05
2023-04-15T23:31:26.316Z,4.80
2023-04-15T23:34:27.954Z,4.28
2023-04-15T23:37:31.454Z,4.20
2023-04-15T23:40:33.201Z,4.93
2023-04-15T23:43:34.937Z,4.38
2023-04-15T23:46:36.670Z,4.60
2023-04-15T23:49:40.874Z,4.43
2023-04-15T23:52:42.651Z,4.33
2023-04-15T23:55:44.308Z,4.50
2023-04-15T23:58:46.137Z,4.22
